createdAt,value
2018-02-12T00:00:57.112Z,99.99
2018-02-12T00:02:06.814Z,99.99
2018-02-12T00:03:16.762Z,99.99
2018-02-12T00:04:26.708Z,99.99
2018-02-12T00:05:36.392Z,99.99
2018-02-12T00:06:46.337Z,99.99
2018-02-12T00:07:56.028Z,99.99
2018-02-12T00:09:05.966Z,99.99
2018-02-12T00:10:15.902Z,99.99
2018-02-12T00:11:25.586Z,99.99
2018-02-12T00:12:35.275Z,99.99
2018-02-12T00:13:44.965Z,99.99
2018-02-12T00:14:54.650Z,99.99
2018-02-12T00:16:04.331Z,99.99
2018-02-12T00:17:14.021Z,99.99
2018-02-12T00:18:23.963Z,99.99
2018-02-12T00:19:33.904Z,99.99
2018-02-12T00:20:43.591Z,99.99
2018-02-12T00:21:53.538Z,99.99
2018-02-12T00:23:03.480Z,99.99
2018-02-12T00:24:13.412Z,99.99
2018-02-12T00:25:22.858Z,99.99
2018-02-12T00:26:32.550Z,99.99
2018-02-12T00:27:42.531Z,99.99
2018-02-12T00:28:52.475Z,99.99
2018-02-12T00:30:02.176Z,99.99
2018-02-12T00:31:12.123Z,99.99
2018-02-12T00:32:22.063Z,99.99
2018-02-12T00:33:32.024Z,99.99
2018-02-12T00:34:41.705Z,99.99
2018-02-12T00:35:51.647Z,99.99
2018-02-12T00:37:01.593Z,99.99
2018-02-12T00:38:11.528Z,99.99
2018-02-12T00:39:21.217Z,99.99
2018-02-12T00:40:31.167Z,99.99
2018-02-12T00:41:40.859Z,99.99
2018-02-12T00:42:50.796Z,99.99
2018-02-12T00:44:00.740Z,99.99
2018-02-12T00:45:10.675Z,99.99
2018-02-12T00:46:20.614Z,99.99
2018-02-12T00:47:30.300Z,99.99
2018-02-12T00:48:39.982Z,99.99
2018-02-12T00:49:49.929Z,99.99
2018-02-12T00:50:59.875Z,99.99
2018-02-12T00:52:09.820Z,99.99
2018-02-12T00:53:19.548Z,99.99
2018-02-12T00:54:29.498Z,99.99
2018-02-12T00:55:39.431Z,99.99
2018-02-12T00:56:49.368Z,99.99
2018-02-12T00:57:59.313Z,99.99
2018-02-12T00:59:09.290Z,99.99
2018-02-12T01:00:18.986Z,99.99
2018-02-12T01:01:28.946Z,99.99
2018-02-12T01:02:38.639Z,99.99
2018-02-12T01:03:48.587Z,99.99
2018-02-12T01:04:58.285Z,99.99
2018-02-12T01:06:08.219Z,99.99
2018-02-12T01:07:18.158Z,99.99
2018-02-12T01:08:28.106Z,99.99
2018-02-12T01:09:38.044Z,99.99
2018-02-12T01:10:47.720Z,99.99
2018-02-12T01:11:57.401Z,99.99
2018-02-12T01:13:07.092Z,99.99
2018-02-12T01:14:17.033Z,99.99
2018-02-12T01:15:26.229Z,99.99
2018-02-12T01:16:36.216Z,99.99
2018-02-12T01:17:46.176Z,99.99
2018-02-12T01:18:56.119Z,99.99
2018-02-12T01:20:06.061Z,99.99
2018-02-12T01:21:15.993Z,99.99
2018-02-12T01:22:25.937Z,99.99
2018-02-12T01:23:35.617Z,99.99
2018-02-12T01:24:45.309Z,99.99
2018-02-12T01:25:55.241Z,99.99
2018-02-12T01:27:05.201Z,99.99
2018-02-12T01:28:15.147Z,99.99
2018-02-12T01:29:25.082Z,99.99
2018-02-12T01:30:35.083Z,99.99
2018-02-12T01:31:44.756Z,99.99
2018-02-12T01:32:54.708Z,99.99
2018-02-12T01:34:04.639Z,99.99
2018-02-12T01:35:14.589Z,99.99
2018-02-12T01:36:24.274Z,99.99
2018-02-12T01:37:33.705Z,99.99
2018-02-12T01:38:43.649Z,99.99
2018-02-12T01:39:53.331Z,99.99
2018-02-12T01:41:03.012Z,99.99
2018-02-12T01:42:12.959Z,99.99
2018-02-12T01:43:22.647Z,99.99
2018-02-12T01:44:32.588Z,99.99
2018-02-12T01:45:42.536Z,99.99
2018-02-12T01:46:52.486Z,99.99
2018-02-12T01:48:02.178Z,99.99
2018-02-12T01:49:12.127Z,99.99
2018-02-12T01:50:21.827Z,99.99
2018-02-12T01:51:31.758Z,99.99
2018-02-12T01:52:41.692Z,99.99
2018-02-12T01:53:51.636Z,99.99
2018-02-12T01:55:01.583Z,99.99
2018-02-12T01:56:11.265Z,99.99
2018-02-12T01:57:20.444Z,99.99
2018-02-12T01:58:30.380Z,99.99
2018-02-12T01:59:40.320Z,99.99
2018-02-12T02:00:50.000Z,99.99
2018-02-12T02:01:59.943Z,99.99
2018-02-12T02:03:09.884Z,99.99
2018-02-12T02:04:19.836Z,99.99
2018-02-12T02:05:29.760Z,99.99
2018-02-12T02:06:39.445Z,99.99
2018-02-12T02:07:49.379Z,99.99
2018-02-12T02:08:59.309Z,99.99
2018-02-12T02:10:09.260Z,99.99
2018-02-12T02:11:18.952Z,99.99
2018-02-12T02:12:28.899Z,99.99
2018-02-12T02:13:38.588Z,99.99
2018-02-12T02:14:48.278Z,99.99
2018-02-12T02:15:57.966Z,99.99
2018-02-12T02:17:07.943Z,99.99
2018-02-12T02:18:17.871Z,99.99
2018-02-12T02:19:27.806Z,99.99
2018-02-12T02:20:37.749Z,99.99
2018-02-12T02:21:47.437Z,99.99
2018-02-12T02:22:57.376Z,99.99
2018-02-12T02:24:07.058Z,99.99
2018-02-12T02:25:16.999Z,99.99
2018-02-12T02:26:26.948Z,99.99
2018-02-12T02:27:36.933Z,99.99
2018-02-12T02:28:46.866Z,99.99
2018-02-12T02:29:56.542Z,99.99
2018-02-12T02:31:05.972Z,99.99
2018-02-12T02:32:15.929Z,99.99
2018-02-12T02:33:25.882Z,99.99
2018-02-12T02:34:35.824Z,99.99
2018-02-12T02:35:45.512Z,99.99
2018-02-12T02:36:55.204Z,99.99
2018-02-12T02:38:04.896Z,99.99
2018-02-12T02:39:14.644Z,99.99
2018-02-12T02:40:24.333Z,99.99
2018-02-12T02:41:34.272Z,99.99
2018-02-12T02:42:44.214Z,99.99
2018-02-12T02:43:53.894Z,99.99
2018-02-12T02:45:03.586Z,99.99
2018-02-12T02:46:13.540Z,99.99
2018-02-12T02:47:23.229Z,99.99
2018-02-12T02:48:33.176Z,99.99
2018-02-12T02:49:43.121Z,99.99
2018-02-12T02:50:52.808Z,99.99
2018-02-12T02:52:02.509Z,99.99
2018-02-12T02:53:12.206Z,99.99
2018-02-12T02:54:22.187Z,99.99
2018-02-12T02:55:31.874Z,99.99
2018-02-12T02:56:41.564Z,99.99
2018-02-12T02:57:51.511Z,99.99
2018-02-12T02:59:01.195Z,99.99
2018-02-12T03:00:11.141Z,99.99
2018-02-12T03:01:21.082Z,99.99
2018-02-12T03:02:31.031Z,99.99
2018-02-12T03:03:40.983Z,99.99
2018-02-12T03:04:50.929Z,99.99
2018-02-12T03:06:00.872Z,99.99
2018-02-12T03:07:10.822Z,99.99
2018-02-12T03:08:20.915Z,99.99
2018-02-12T03:09:30.603Z,99.99
2018-02-12T03:10:40.541Z,99.99
2018-02-12T03:11:50.490Z,99.99
2018-02-12T03:13:00.180Z,99.99
2018-02-12T03:14:10.114Z,99.99
2018-02-12T03:15:20.053Z,99.99
2018-02-12T03:16:29.984Z,99.99
2018-02-12T03:17:39.913Z,99.99
2018-02-12T03:18:49.596Z,99.99
2018-02-12T03:19:59.530Z,99.99
2018-02-12T03:21:09.475Z,99.99
2018-02-12T03:22:19.155Z,99.99
2018-02-12T03:23:28.586Z,99.99
2018-02-12T03:24:38.534Z,99.99
2018-02-12T03:25:48.476Z,99.99
2018-02-12T03:26:58.409Z,99.99
2018-02-12T03:28:08.100Z,99.99
2018-02-12T03:29:18.034Z,99.99
2018-02-12T03:30:27.727Z,99.99
2018-02-12T03:31:37.687Z,99.99
2018-02-12T03:32:47.829Z,99.99
2018-02-12T03:33:57.803Z,99.99
2018-02-12T03:35:07.764Z,99.99
2018-02-12T03:36:17.458Z,99.99
2018-02-12T03:37:27.139Z,99.99
2018-02-12T03:38:37.278Z,99.99
2018-02-12T03:39:46.710Z,99.99
2018-02-12T03:40:56.131Z,99.99
2018-02-12T03:42:06.074Z,99.99
2018-02-12T03:43:15.805Z,99.99
2018-02-12T03:44:25.737Z,99.99
2018-02-12T03:45:35.688Z,99.99
2018-02-12T03:46:45.365Z,99.99
2018-02-12T03:47:54.802Z,99.99
2018-02-12T03:49:04.741Z,99.99
2018-02-12T03:50:14.701Z,99.99
2018-02-12T03:51:24.390Z,99.99
2018-02-12T03:52:34.332Z,99.99
2018-02-12T03:53:44.282Z,99.99
2018-02-12T03:54:53.962Z,99.99
2018-02-12T03:56:03.642Z,99.99
2018-02-12T03:57:13.338Z,99.99
2018-02-12T03:58:23.277Z,99.99
2018-02-12T03:59:33.235Z,99.99
2018-02-12T04:00:42.947Z,99.99
2018-02-12T04:01:52.962Z,99.99
2018-02-12T04:03:02.911Z,99.99
2018-02-12T04:04:12.337Z,99.99
2018-02-12T04:05:22.276Z,99.99
2018-02-12T04:06:32.206Z,99.99
2018-02-12T04:07:41.944Z,99.99
2018-02-12T04:08:51.383Z,99.99
2018-02-12T04:10:01.068Z,99.99
2018-02-12T04:11:11.013Z,99.99
2018-02-12T04:12:20.707Z,99.99
2018-02-12T04:13:30.644Z,99.99
2018-02-12T04:14:40.585Z,99.99
2018-02-12T04:15:50.534Z,99.99
2018-02-12T04:16:59.973Z,99.99
2018-02-12T04:18:09.667Z,99.99
2018-02-12T04:19:19.612Z,99.99
2018-02-12T04:20:29.045Z,99.99
2018-02-12T04:21:38.986Z,99.99
2018-02-12T04:22:48.928Z,99.99
2018-02-12T04:23:58.877Z,99.99
2018-02-12T04:25:08.819Z,99.99
2018-02-12T04:26:18.759Z,99.99
2018-02-12T04:27:28.712Z,99.99
2018-02-12T04:28:38.644Z,99.99
2018-02-12T04:29:48.328Z,99.99
2018-02-12T04:30:58.281Z,99.99
2018-02-12T04:32:08.217Z,99.99
2018-02-12T04:33:18.154Z,99.99
2018-02-12T04:34:28.093Z,99.99
2018-02-12T04:35:37.770Z,99.99
2018-02-12T04:36:47.714Z,99.99
2018-02-12T04:37:57.384Z,99.99
2018-02-12T04:39:07.321Z,99.99
2018-02-12T04:40:17.025Z,99.99
2018-02-12T04:41:26.976Z,99.99
2018-02-12T04:42:36.915Z,99.99
2018-02-12T04:43:46.857Z,99.99
2018-02-12T04:44:56.798Z,99.99
2018-02-12T04:46:06.740Z,99.99
2018-02-12T04:47:16.425Z,99.99
2018-02-12T04:48:26.361Z,99.99
2018-02-12T04:49:36.352Z,99.99
2018-02-12T04:50:46.310Z,99.99
2018-02-12T04:51:56.260Z,99.99
2018-02-12T04:53:06.202Z,99.99
2018-02-12T04:54:16.144Z,99.99
2018-02-12T04:55:25.821Z,99.99
2018-02-12T04:56:35.762Z,99.99
2018-02-12T04:57:45.708Z,99.99
2018-02-12T04:58:55.651Z,99.99
2018-02-12T05:00:05.585Z,99.99
2018-02-12T05:01:15.518Z,99.99
2018-02-12T05:02:25.476Z,99.99
2018-02-12T05:03:35.412Z,99.99
2018-02-12T05:04:45.374Z,99.99
2018-02-12T05:05:55.356Z,99.99
2018-02-12T05:07:05.392Z,99.99
2018-02-12T05:08:15.337Z,99.99
2018-02-12T05:09:25.278Z,99.99
2018-02-12T05:10:35.220Z,99.99
2018-02-12T05:11:45.165Z,99.99
2018-02-12T05:12:54.847Z,99.99
2018-02-12T05:14:04.276Z,99.99
2018-02-12T05:15:14.211Z,99.99
2018-02-12T05:16:24.149Z,99.99
2018-02-12T05:17:33.836Z,99.99
2018-02-12T05:18:43.771Z,99.99
2018-02-12T05:19:53.204Z,99.99
2018-02-12T05:21:03.159Z,99.99
2018-02-12T05:22:12.839Z,99.99
2018-02-12T05:23:22.784Z,99.99
2018-02-12T05:24:32.732Z,99.99
2018-02-12T05:25:42.665Z,99.99
2018-02-12T05:26:52.608Z,99.99
2018-02-12T05:28:01.528Z,99.99
2018-02-12T05:29:11.223Z,99.99
2018-02-12T05:30:20.919Z,99.99
2018-02-12T05:31:30.609Z,99.99
2018-02-12T05:32:40.560Z,99.99
2018-02-12T05:33:50.509Z,99.99
2018-02-12T05:35:00.198Z,99.99
2018-02-12T05:36:10.144Z,99.99
2018-02-12T05:37:20.092Z,99.99
2018-02-12T05:38:29.776Z,99.99
2018-02-12T05:39:39.713Z,99.99
2018-02-12T05:40:49.651Z,99.99
2018-02-12T05:41:59.582Z,99.99
2018-02-12T05:43:09.292Z,99.99
2018-02-12T05:44:18.988Z,99.99
2018-02-12T05:45:28.943Z,99.99
2018-02-12T05:46:38.884Z,99.99
2018-02-12T05:47:48.826Z,99.99
2018-02-12T05:48:58.763Z,99.99
2018-02-12T05:50:08.449Z,99.99
2018-02-12T05:51:18.145Z,99.99
2018-02-12T05:52:27.845Z,99.99
2018-02-12T05:53:37.530Z,99.99
2018-02-12T05:54:46.962Z,99.99
2018-02-12T05:55:56.901Z,99.99
2018-02-12T05:57:06.851Z,99.99
2018-02-12T05:58:16.572Z,99.99
2018-02-12T05:59:26.309Z,99.99
2018-02-12T06:00:35.733Z,99.99
2018-02-12T06:01:45.418Z,99.99
2018-02-12T06:02:55.385Z,99.99
2018-02-12T06:04:05.335Z,99.99
2018-02-12T06:05:15.274Z,99.99
2018-02-12T06:06:25.234Z,99.99
2018-02-12T06:07:35.175Z,99.99
2018-02-12T06:08:45.124Z,99.99
2018-02-12T06:09:55.073Z,99.99
2018-02-12T06:11:05.043Z,99.99
2018-02-12T06:12:15.000Z,99.99
2018-02-12T06:13:24.930Z,99.99
2018-02-12T06:14:34.885Z,99.99
2018-02-12T06:15:44.823Z,99.99
2018-02-12T06:16:54.000Z,99.99
2018-02-12T06:18:04.007Z,99.99
2018-02-12T06:19:13.982Z,99.99
2018-02-12T06:20:23.671Z,99.99
2018-02-12T06:21:33.613Z,99.99
2018-02-12T06:22:43.563Z,99.99
2018-02-12T06:23:53.258Z,99.99
2018-02-12T06:25:02.699Z,99.99
2018-02-12T06:26:12.392Z,99.99
2018-02-12T06:27:22.336Z,99.99
2018-02-12T06:28:32.293Z,99.99
2018-02-12T06:29:42.229Z,99.99
2018-02-12T06:30:51.936Z,99.99
2018-02-12T06:32:01.700Z,99.99
2018-02-12T06:33:11.394Z,99.99
2018-02-12T06:34:21.355Z,99.99
2018-02-12T06:35:31.305Z,99.99
2018-02-12T06:36:40.738Z,99.99
2018-02-12T06:37:50.686Z,99.99
2018-02-12T06:38:59.873Z,99.99
2018-02-12T06:40:09.829Z,99.99
2018-02-12T06:41:19.779Z,99.99
2018-02-12T06:42:29.738Z,99.99
2018-02-12T06:43:39.689Z,99.99
2018-02-12T06:44:49.634Z,99.99
2018-02-12T06:45:59.569Z,99.99
2018-02-12T06:47:09.526Z,99.99
2018-02-12T06:48:19.270Z,99.99
2018-02-12T06:49:29.233Z,99.99
2018-02-12T06:50:39.187Z,99.99
2018-02-12T06:51:49.135Z,99.99
2018-02-12T06:52:59.105Z,99.99
2018-02-12T06:54:09.064Z,99.99
2018-02-12T06:55:18.513Z,99.99
2018-02-12T06:56:28.470Z,99.99
2018-02-12T06:57:38.424Z,99.99
2018-02-12T06:58:48.130Z,99.99
2018-02-12T06:59:57.815Z,99.99
2018-02-12T07:01:07.268Z,99.99
2018-02-12T07:02:17.216Z,99.99
2018-02-12T07:03:26.904Z,99.99
2018-02-12T07:04:36.608Z,99.99
2018-02-12T07:05:46.562Z,99.99
2018-02-12T07:06:56.529Z,99.99
2018-02-12T07:08:06.497Z,99.99
2018-02-12T07:09:16.199Z,99.99
2018-02-12T07:10:25.893Z,99.99
2018-02-12T07:11:35.822Z,99.99
2018-02-12T07:12:45.795Z,99.99
2018-02-12T07:13:55.805Z,99.99
2018-02-12T07:15:05.784Z,99.99
2018-02-12T07:16:15.735Z,99.99
2018-02-12T07:17:25.428Z,99.99
2018-02-12T07:18:35.385Z,99.99
2018-02-12T07:19:45.384Z,99.99
2018-02-12T07:20:55.098Z,99.99
2018-02-12T07:22:04.275Z,99.99
2018-02-12T07:23:14.223Z,99.99
2018-02-12T07:24:24.199Z,99.99
2018-02-12T07:25:34.155Z,99.99
2018-02-12T07:26:43.849Z,99.99
2018-02-12T07:27:53.829Z,99.99
2018-02-12T07:29:03.799Z,99.99
2018-02-12T07:30:13.750Z,99.99
2018-02-12T07:31:23.703Z,99.99
2018-02-12T07:32:33.396Z,99.99
2018-02-12T07:33:43.358Z,99.99
2018-02-12T07:34:53.316Z,99.99
2018-02-12T07:36:03.283Z,99.99
2018-02-12T07:37:12.725Z,99.99
2018-02-12T07:38:22.696Z,99.99
2018-02-12T07:39:32.661Z,99.99
2018-02-12T07:40:42.607Z,99.99
2018-02-12T07:41:52.574Z,99.99
2018-02-12T07:43:02.260Z,99.99
2018-02-12T07:44:12.241Z,99.99
2018-02-12T07:45:21.939Z,99.99
2018-02-12T07:46:31.656Z,99.99
2018-02-12T07:47:41.640Z,99.99
2018-02-12T07:48:51.627Z,99.99
2018-02-12T07:50:01.319Z,99.99
2018-02-12T07:51:11.267Z,99.99
2018-02-12T07:52:20.980Z,99.99
2018-02-12T07:53:30.950Z,99.99
2018-02-12T07:54:40.656Z,99.99
2018-02-12T07:55:50.607Z,99.99
2018-02-12T07:57:00.599Z,99.99
2018-02-12T07:58:10.311Z,99.99
2018-02-12T07:59:20.264Z,99.99
2018-02-12T08:00:30.216Z,99.99
2018-02-12T08:01:40.253Z,99.99
2018-02-12T08:02:50.217Z,99.99
2018-02-12T08:03:59.941Z,99.99
2018-02-12T08:05:09.383Z,99.99
2018-02-12T08:06:19.094Z,99.99
2018-02-12T08:07:28.799Z,99.99
2018-02-12T08:08:38.252Z,99.99
2018-02-12T08:09:47.974Z,99.99
2018-02-12T08:10:57.927Z,99.99
2018-02-12T08:12:07.949Z,99.99
2018-02-12T08:13:18.059Z,99.99
2018-02-12T08:14:28.008Z,99.99
2018-02-12T08:15:37.717Z,99.99
2018-02-12T08:16:47.675Z,99.99
2018-02-12T08:17:57.379Z,99.99
2018-02-12T08:19:07.087Z,99.99
2018-02-12T08:20:16.853Z,99.99
2018-02-12T08:21:26.567Z,99.99
2018-02-12T08:22:36.534Z,99.99
2018-02-12T08:23:45.996Z,99.99
2018-02-12T08:24:55.689Z,99.99
2018-02-12T08:26:05.405Z,99.99
2018-02-12T08:27:15.381Z,99.99
2018-02-12T08:28:25.080Z,99.99
2018-02-12T08:29:34.769Z,99.99
2018-02-12T08:30:44.732Z,99.99
2018-02-12T08:31:54.260Z,99.99
2018-02-12T08:33:03.983Z,99.99
2018-02-12T08:34:13.932Z,99.99
2018-02-12T08:35:23.647Z,99.99
2018-02-12T08:36:33.706Z,99.99
2018-02-12T08:37:43.412Z,99.99
2018-02-12T08:38:53.397Z,99.99
2018-02-12T08:40:03.131Z,99.99
2018-02-12T08:41:12.828Z,99.99
2018-02-12T08:42:22.792Z,99.99
2018-02-12T08:43:32.745Z,99.99
2018-02-12T08:44:42.706Z,99.99
2018-02-12T08:45:52.684Z,99.99
2018-02-12T08:47:02.675Z,99.99
2018-02-12T08:48:12.632Z,99.99
2018-02-12T08:49:22.418Z,99.99
2018-02-12T08:50:32.371Z,99.99
2018-02-12T08:51:42.580Z,99.99
2018-02-12T08:52:52.561Z,99.99
2018-02-12T08:54:02.559Z,99.99
2018-02-12T08:55:12.521Z,99.99
2018-02-12T08:56:22.526Z,99.99
2018-02-12T08:57:32.575Z,99.99
2018-02-12T08:58:42.016Z,99.99
2018-02-12T08:59:51.967Z,99.99
2018-02-12T09:01:01.952Z,99.99
2018-02-12T09:02:11.979Z,99.99
2018-02-12T09:03:21.953Z,99.99
2018-02-12T09:04:31.903Z,99.99
2018-02-12T09:05:41.847Z,99.99
2018-02-12T09:06:51.548Z,99.99
2018-02-12T09:08:01.510Z,99.99
2018-02-12T09:09:10.945Z,99.99
2018-02-12T09:10:20.914Z,99.99
2018-02-12T09:11:30.859Z,99.99
2018-02-12T09:12:40.815Z,99.99
2018-02-12T09:13:50.283Z,99.99
2018-02-12T09:15:00.036Z,99.99
2018-02-12T09:16:09.752Z,99.99
2018-02-12T09:17:19.723Z,99.99
2018-02-12T09:18:29.681Z,99.99
2018-02-12T09:19:39.630Z,99.99
2018-02-12T09:20:49.337Z,99.99
2018-02-12T09:21:59.365Z,99.99
2018-02-12T09:23:09.077Z,99.99
2018-02-12T09:24:18.769Z,99.99
2018-02-12T09:25:28.986Z,99.99
2018-02-12T09:26:39.001Z,99.99
2018-02-12T09:27:48.989Z,99.99
2018-02-12T09:28:58.951Z,99.99
2018-02-12T09:30:08.902Z,99.99
2018-02-12T09:31:18.864Z,99.99
2018-02-12T09:32:28.567Z,99.99
2018-02-12T09:33:38.767Z,99.99
2018-02-12T09:34:48.720Z,99.99
2018-02-12T09:35:58.188Z,99.99
2018-02-12T09:37:08.165Z,99.99
2018-02-12T09:38:18.148Z,99.99
2018-02-12T09:39:27.842Z,99.99
2018-02-12T09:40:37.783Z,99.99
2018-02-12T09:41:47.511Z,99.99
2018-02-12T09:42:57.234Z,99.99
2018-02-12T09:44:06.974Z,99.99
2018-02-12T09:45:16.938Z,99.99
2018-02-12T09:46:26.660Z,99.99
2018-02-12T09:47:36.913Z,99.99
2018-02-12T09:48:46.885Z,99.99
2018-02-12T09:49:56.852Z,99.99
2018-02-12T09:51:06.825Z,99.99
2018-02-12T09:52:16.805Z,99.99
2018-02-12T09:53:26.263Z,99.99
2018-02-12T09:54:36.242Z,99.99
2018-02-12T09:55:46.231Z,99.99
2018-02-12T09:56:56.008Z,99.99
2018-02-12T09:58:05.978Z,99.99
2018-02-12T09:59:15.693Z,99.99
2018-02-12T10:00:25.657Z,99.99
2018-02-12T10:01:34.848Z,99.99
2018-02-12T10:02:44.796Z,99.99
2018-02-12T10:03:54.767Z,99.99
2018-02-12T10:05:04.479Z,99.99
2018-02-12T10:06:14.414Z,99.99
2018-02-12T10:07:24.214Z,99.99
2018-02-12T10:08:33.733Z,99.99
2018-02-12T10:09:43.543Z,99.99
2018-02-12T10:10:53.696Z,99.99
2018-02-12T10:12:03.509Z,99.99
2018-02-12T10:13:13.529Z,99.99
2018-02-12T10:14:23.516Z,99.99
2018-02-12T10:15:33.217Z,99.99
2018-02-12T10:16:43.467Z,99.99
2018-02-12T10:17:53.683Z,99.99
2018-02-12T10:19:03.684Z,99.99
2018-02-12T10:20:13.652Z,99.99
2018-02-12T10:21:23.348Z,99.99
2018-02-12T10:22:33.317Z,99.99
2018-02-12T10:23:43.269Z,99.99
2018-02-12T10:24:53.228Z,99.99
2018-02-12T10:26:03.194Z,99.99
2018-02-12T10:27:12.910Z,99.99
2018-02-12T10:28:22.860Z,99.99
2018-02-12T10:29:32.814Z,99.99
2018-02-12T10:30:42.787Z,99.99
2018-02-12T10:31:52.488Z,99.99
2018-02-12T10:33:02.450Z,99.99
2018-02-12T10:34:12.415Z,99.99
2018-02-12T10:35:22.395Z,99.99
2018-02-12T10:36:32.407Z,99.99
2018-02-12T10:37:42.116Z,99.99
2018-02-12T10:38:52.083Z,99.99
2018-02-12T10:40:02.034Z,99.99
2018-02-12T10:41:12.017Z,99.99
2018-02-12T10:42:21.748Z,99.99
2018-02-12T10:43:31.722Z,99.99
2018-02-12T10:44:41.696Z,99.99
2018-02-12T10:45:51.658Z,99.99
2018-02-12T10:47:01.679Z,99.99
2018-02-12T10:48:11.694Z,99.99
2018-02-12T10:49:21.410Z,99.99
2018-02-12T10:50:31.404Z,99.99
2018-02-12T10:51:41.394Z,99.99
2018-02-12T10:52:51.358Z,99.99
2018-02-12T10:54:01.052Z,99.99
2018-02-12T10:55:11.017Z,99.99
2018-02-12T10:56:20.971Z,99.99
2018-02-12T10:57:30.412Z,99.99
2018-02-12T10:58:40.124Z,99.99
2018-02-12T10:59:50.098Z,99.99
2018-02-12T11:01:00.092Z,99.99
2018-02-12T11:02:10.101Z,99.99
2018-02-12T11:03:20.086Z,99.99
2018-02-12T11:04:30.040Z,99.99
2018-02-12T11:05:39.739Z,99.99
2018-02-12T11:06:49.688Z,99.99
2018-02-12T11:07:59.676Z,99.99
2018-02-12T11:09:09.664Z,99.99
2018-02-12T11:10:19.631Z,99.99
2018-02-12T11:11:29.842Z,99.99
2018-02-12T11:12:39.793Z,99.99
2018-02-12T11:13:49.491Z,99.99
2018-02-12T11:14:59.251Z,99.99
2018-02-12T11:16:08.969Z,99.99
2018-02-12T11:17:19.005Z,99.99
2018-02-12T11:18:28.979Z,99.99
2018-02-12T11:19:38.697Z,99.99
2018-02-12T11:20:48.147Z,99.99
2018-02-12T11:21:58.079Z,98.49
2018-02-12T11:23:07.796Z,98.49
2018-02-12T11:24:17.797Z,98.21
2018-02-12T11:25:27.758Z,97.35
2018-02-12T11:26:37.212Z,97.02
2018-02-12T11:27:47.174Z,96.55
2018-02-12T11:28:57.160Z,96.45
2018-02-12T11:30:07.130Z,97.21
2018-02-12T11:31:17.128Z,95.22
2018-02-12T11:32:27.088Z,95.69
2018-02-12T11:33:37.043Z,95.03
2018-02-12T11:34:46.765Z,94.56
2018-02-12T11:35:56.512Z,94.65
2018-02-12T11:37:06.213Z,95.31
2018-02-12T11:38:15.941Z,95.41
2018-02-12T11:39:25.942Z,96.08
2018-02-12T11:40:36.171Z,96.41
2018-02-12T11:41:45.906Z,96.5
2018-02-12T11:42:55.884Z,96.12
2018-02-12T11:44:05.855Z,96.5
2018-02-12T11:45:15.840Z,96.97
2018-02-12T11:46:25.552Z,96.41
2018-02-12T11:47:35.295Z,96.12
2018-02-12T11:48:45.260Z,96.59
2018-02-12T11:49:55.224Z,96.88
2018-02-12T11:51:04.936Z,95.93
2018-02-12T11:52:14.667Z,95.84
2018-02-12T11:53:24.640Z,95.07
2018-02-12T11:54:34.607Z,94.7
2018-02-12T11:55:44.319Z,94.7
2018-02-12T11:56:54.073Z,94.79
2018-02-12T11:58:04.049Z,94.98
2018-02-12T11:59:14.036Z,94.32
2018-02-12T12:00:24.283Z,94.51
2018-02-12T12:01:34.034Z,94.89
2018-02-12T12:02:44.003Z,95.07
2018-02-12T12:03:53.964Z,95.17
2018-02-12T12:05:03.420Z,95.36
2018-02-12T12:06:12.869Z,95.26
2018-02-12T12:07:22.820Z,94.98
2018-02-12T12:08:32.781Z,94.79
2018-02-12T12:09:42.746Z,94.51
2018-02-12T12:10:52.713Z,94.51
2018-02-12T12:12:02.417Z,94.98
2018-02-12T12:13:12.389Z,94.51
2018-02-12T12:14:22.346Z,94.51
2018-02-12T12:15:32.368Z,94.37
2018-02-12T12:16:42.362Z,92.28
2018-02-12T12:17:52.332Z,91.05
2018-02-12T12:19:01.515Z,91.52
2018-02-12T12:20:11.525Z,91.14
2018-02-12T12:21:21.234Z,90.71
2018-02-12T12:22:31.198Z,91.19
2018-02-12T12:23:41.171Z,91.33
2018-02-12T12:24:51.152Z,91.61
2018-02-12T12:26:01.117Z,91.99
2018-02-12T12:27:10.598Z,91.9
2018-02-12T12:28:20.050Z,91.99
2018-02-12T12:29:30.055Z,92.57
2018-02-12T12:30:39.500Z,91.8
2018-02-12T12:31:49.463Z,92.18
2018-02-12T12:32:59.462Z,91.61
2018-02-12T12:34:09.501Z,91.99
2018-02-12T12:35:18.993Z,91.75
2018-02-12T12:36:28.778Z,90.05
2018-02-12T12:37:38.558Z,88.91
2018-02-12T12:38:48.571Z,87.11
2018-02-12T12:39:58.548Z,86.87
2018-02-12T12:41:08.559Z,85.82
2018-02-12T12:42:18.551Z,85.53
2018-02-12T12:43:28.564Z,85.72
2018-02-12T12:44:38.553Z,85.72
2018-02-12T12:45:48.510Z,86.07
2018-02-12T12:46:58.508Z,86.07
2018-02-12T12:48:08.487Z,85.63
2018-02-12T12:49:18.203Z,84.59
2018-02-12T12:50:28.158Z,84.68
2018-02-12T12:51:38.129Z,83.45
2018-02-12T12:52:48.119Z,83.07
2018-02-12T12:53:58.110Z,82.92
2018-02-12T12:55:08.095Z,82.64
2018-02-12T12:56:18.086Z,82.07
2018-02-12T12:57:27.530Z,82.07
2018-02-12T12:58:37.521Z,81.21
2018-02-12T12:59:47.477Z,80.16
2018-02-12T13:00:57.543Z,79.22
2018-02-12T13:02:07.014Z,79.31
2018-02-12T13:03:16.964Z,79.22
2018-02-12T13:04:26.918Z,79.6
2018-02-12T13:05:36.895Z,79.31
2018-02-12T13:06:46.866Z,79.08
2018-02-12T13:07:56.826Z,80.6
2018-02-12T13:09:06.782Z,79.46
2018-02-12T13:10:16.724Z,79.36
2018-02-12T13:11:26.709Z,77.79
2018-02-12T13:12:36.680Z,77.28
2018-02-12T13:13:46.381Z,78.23
2018-02-12T13:14:56.330Z,79.27
2018-02-12T13:16:06.335Z,79.55
2018-02-12T13:17:16.299Z,79.84
2018-02-12T13:18:26.261Z,80.32
2018-02-12T13:19:36.229Z,80.22
2018-02-12T13:20:46.179Z,79.84
2018-02-12T13:21:55.633Z,80.75
2018-02-12T13:23:05.602Z,80.08
2018-02-12T13:24:15.578Z,80.65
2018-02-12T13:25:25.579Z,80.84
2018-02-12T13:26:35.555Z,80.94
2018-02-12T13:27:45.522Z,81.6
2018-02-12T13:28:55.492Z,80.94
2018-02-12T13:30:05.185Z,81.51
2018-02-12T13:31:15.180Z,81.79
2018-02-12T13:32:24.871Z,82.46
2018-02-12T13:33:34.902Z,82.46
2018-02-12T13:34:44.926Z,82.36
2018-02-12T13:35:54.863Z,82.42
2018-02-12T13:37:04.816Z,83.03
2018-02-12T13:38:14.527Z,82.74
2018-02-12T13:39:24.219Z,82.79
2018-02-12T13:40:34.195Z,83.08
2018-02-12T13:41:43.898Z,83.36
2018-02-12T13:42:53.864Z,83.74
2018-02-12T13:44:03.816Z,84.03
2018-02-12T13:45:13.784Z,84.12
2018-02-12T13:46:23.501Z,83.74
2018-02-12T13:47:33.458Z,83.65
2018-02-12T13:48:43.169Z,83.36
2018-02-12T13:49:53.166Z,83.08
2018-02-12T13:51:03.140Z,82.89
2018-02-12T13:52:13.097Z,82.27
2018-02-12T13:53:23.076Z,81.98
2018-02-12T13:54:32.777Z,81.79
2018-02-12T13:55:42.789Z,80.75
2018-02-12T13:56:52.498Z,81.6
2018-02-12T13:58:02.459Z,82.17
2018-02-12T13:59:12.433Z,82.55
2018-02-12T14:00:22.405Z,82.93
2018-02-12T14:01:32.356Z,82.93
2018-02-12T14:02:42.351Z,83.08
2018-02-12T14:03:52.318Z,84.22
2018-02-12T14:05:02.294Z,84.59
2018-02-12T14:06:12.017Z,85.26
2018-02-12T14:07:21.976Z,85.45
2018-02-12T14:08:31.946Z,85.45
2018-02-12T14:09:41.649Z,85.45
2018-02-12T14:10:51.349Z,85.17
2018-02-12T14:12:01.049Z,84.98
2018-02-12T14:13:11.011Z,85.26
2018-02-12T14:14:20.974Z,85.36
2018-02-12T14:15:30.687Z,85.36
2018-02-12T14:16:40.654Z,85.36
2018-02-12T14:17:50.610Z,85.64
2018-02-12T14:19:00.572Z,86.11
2018-02-12T14:20:10.533Z,85.83
2018-02-12T14:21:20.611Z,86.49
2018-02-12T14:22:30.302Z,85.74
2018-02-12T14:23:40.246Z,85.74
2018-02-12T14:24:50.207Z,85.26
2018-02-12T14:25:59.915Z,84.59
2018-02-12T14:27:09.612Z,84.41
2018-02-12T14:28:19.579Z,84.41
2018-02-12T14:29:29.526Z,85.26
2018-02-12T14:30:39.485Z,85.36
2018-02-12T14:31:49.489Z,85.07
2018-02-12T14:32:59.448Z,85.83
2018-02-12T14:34:09.393Z,86.4
2018-02-12T14:35:19.085Z,86.4
2018-02-12T14:36:29.045Z,86.21
2018-02-12T14:37:38.998Z,86.49
2018-02-12T14:38:48.707Z,86.49
2018-02-12T14:39:58.416Z,86.11
2018-02-12T14:41:08.372Z,86.49
2018-02-12T14:42:18.339Z,85.83
2018-02-12T14:43:28.301Z,85.83
2018-02-12T14:44:38.002Z,85.64
2018-02-12T14:45:47.960Z,85.83
2018-02-12T14:46:57.917Z,85.78
2018-02-12T14:48:07.907Z,86.11
2018-02-12T14:49:17.850Z,85.83
2018-02-12T14:50:27.601Z,85.83
2018-02-12T14:51:37.621Z,86.02
2018-02-12T14:52:47.580Z,86.59
2018-02-12T14:53:57.279Z,86.11
2018-02-12T14:55:06.963Z,86.21
2018-02-12T14:56:16.925Z,86.59
2018-02-12T14:57:26.751Z,86.3
2018-02-12T14:58:36.704Z,86.02
2018-02-12T14:59:46.673Z,85.83
2018-02-12T15:00:56.646Z,85.45